PWSweather.com
Personal Weather Stations
Station Observations
KCTGROTO5
Groton, CT 06340

Groton, CT 06340

Lat: 41.355721, Lon: -72.084428

Elevation: 0

Station Type: acurite 5in1

High Low Average
Temperature 80.1°F26.7°C 71.4°F21.9°C 74.2°F23.4°C
Dew Point 72.1°F22.3°C 70.2°F21.2°C 71.1°F21.7°C
Winds 6.0 mph 9.7 kmh Calm Calm 3.0 mph S4.8 kmh S
Wind Gusts 6.0 mph9.7 kmh 2.0 mph3.2 kmh 4.0 mph6.4 kmh
Humidity 98% 75% 90%
Pressure 29.97 in1014.9 mb 29.88 in1011.9 mb -
Precipitation 0.03 in0.8 mm - -
Hour Temp Dew Point Humidity Winds Wind Gusts Pressure Precip Precip Rate Daily Precip Total
06:19 PM 80.1°F26.7°C 71.6°F22.0°C 75% 4.0 mph S6.4 kmh S 5.0 mph8.0 kmh 29.89 in1012.2 mb 0.00 in0.0 mm 0.00 in0.0 mm 0.03 in0.8 mm
06:20 PM 80.1°F26.7°C 71.6°F22.0°C 75% 4.0 mph S6.4 kmh S 5.0 mph8.0 kmh 29.89 in1012.2 mb 0.00 in0.0 mm 0.00 in0.0 mm 0.03 in0.8 mm
06:21 PM 80.1°F26.7°C 71.6°F22.0°C 75% 4.0 mph SSW6.4 kmh SSW 5.0 mph8.0 kmh 29.90 in1012.5 mb 0.00 in0.0 mm 0.00 in0.0 mm 0.03 in0.8 mm
06:22 PM 80.1°F26.7°C 71.6°F22.0°C 75% 4.0 mph SW6.4 kmh SW 5.0 mph8.0 kmh 29.89 in1012.2 mb 0.00 in0.0 mm 0.00 in0.0 mm 0.03 in0.8 mm
06:23 PM 80.1°F26.7°C 71.6°F22.0°C 75% 4.0 mph S6.4 kmh S 5.0 mph8.0 kmh 29.89 in1012.2 mb 0.00 in0.0 mm 0.00 in0.0 mm 0.03 in0.8 mm
06:24 PM 80.1°F26.7°C 71.6°F22.0°C 75% 5.0 mph S8.0 kmh S 6.0 mph9.7 kmh 29.89 in1012.2 mb 0.00 in0.0 mm 0.00 in0.0 mm 0.03 in0.8 mm
06:25 PM 80.1°F26.7°C 71.6°F22.0°C 75% 4.0 mph SSE6.4 kmh SSE 6.0 mph9.7 kmh 29.88 in1011.9 mb 0.00 in0.0 mm 0.00 in0.0 mm 0.03 in0.8 mm
06:26 PM 80.1°F26.7°C 71.6°F22.0°C 75% 4.0 mph S6.4 kmh S 6.0 mph9.7 kmh 29.88 in1011.9 mb 0.00 in0.0 mm 0.00 in0.0 mm 0.03 in0.8 mm
06:27 PM 80.1°F26.7°C 71.6°F22.0°C 75% 4.0 mph SSE6.4 kmh SSE 6.0 mph9.7 kmh 29.89 in1012.2 mb 0.00 in0.0 mm 0.00 in0.0 mm 0.03 in0.8 mm
06:28 PM 79.9°F26.6°C 71.4°F21.9°C 75% 2.0 mph S3.2 kmh S 6.0 mph9.7 kmh 29.89 in1012.2 mb 0.00 in0.0 mm 0.00 in0.0 mm 0.03 in0.8 mm
06:29 PM 79.9°F26.6°C 71.4°F21.9°C 75% 4.0 mph SSW6.4 kmh SSW 6.0 mph9.7 kmh 29.89 in1012.2 mb 0.00 in0.0 mm 0.00 in0.0 mm 0.03 in0.8 mm
06:30 PM 79.9°F26.6°C 71.4°F21.9°C 75% 4.0 mph SW6.4 kmh SW 6.0 mph9.7 kmh 29.89 in1012.2 mb 0.00 in0.0 mm 0.00 in0.0 mm 0.03 in0.8 mm
06:31 PM 79.9°F26.6°C 71.4°F21.9°C 75% 4.0 mph SW6.4 kmh SW 6.0 mph9.7 kmh 29.89 in1012.2 mb 0.00 in0.0 mm 0.00 in0.0 mm 0.03 in0.8 mm
06:32 PM 79.9°F26.6°C 71.4°F21.9°C 75% 3.0 mph S4.8 kmh S 6.0 mph9.7 kmh 29.88 in1011.9 mb 0.00 in0.0 mm 0.00 in0.0 mm 0.03 in0.8 mm
06:33 PM 79.9°F26.6°C 71.4°F21.9°C 75% 3.0 mph S4.8 kmh S 6.0 mph9.7 kmh 29.89 in1012.2 mb 0.00 in0.0 mm 0.00 in0.0 mm 0.03 in0.8 mm
06:34 PM 79.9°F26.6°C 71.8°F22.1°C 76% 4.0 mph S6.4 kmh S 5.0 mph8.0 kmh 29.89 in1012.2 mb 0.00 in0.0 mm 0.00 in0.0 mm 0.03 in0.8 mm
06:35 PM 79.9°F26.6°C 71.8°F22.1°C 76% 3.0 mph ESE4.8 kmh ESE 5.0 mph8.0 kmh 29.88 in1011.9 mb 0.00 in0.0 mm 0.00 in0.0 mm 0.03 in0.8 mm
06:36 PM 79.9°F26.6°C 71.8°F22.1°C 76% 4.0 mph S6.4 kmh S 5.0 mph8.0 kmh 29.88 in1011.9 mb 0.00 in0.0 mm 0.00 in0.0 mm 0.03 in0.8 mm
06:37 PM 79.9°F26.6°C 71.8°F22.1°C 76% 3.0 mph SSE4.8 kmh SSE 5.0 mph8.0 kmh 29.89 in1012.2 mb 0.00 in0.0 mm 0.00 in0.0 mm 0.03 in0.8 mm
06:38 PM 79.9°F26.6°C 71.8°F22.1°C 76% 4.0 mph SSE6.4 kmh SSE 5.0 mph8.0 kmh 29.88 in1011.9 mb 0.00 in0.0 mm 0.00 in0.0 mm 0.03 in0.8 mm
06:39 PM 79.9°F26.6°C 71.8°F22.1°C 76% 5.0 mph SSW8.0 kmh SSW 5.0 mph8.0 kmh 29.89 in1012.2 mb 0.00 in0.0 mm 0.00 in0.0 mm 0.03 in0.8 mm
06:40 PM 79.9°F26.6°C 71.8°F22.1°C 76% 6.0 mph SW9.7 kmh SW 6.0 mph9.7 kmh 29.89 in1012.2 mb 0.00 in0.0 mm 0.00 in0.0 mm 0.03 in0.8 mm
06:41 PM 79.6°F26.4°C 71.5°F21.9°C 76% 4.0 mph SSW6.4 kmh SSW 6.0 mph9.7 kmh 29.89 in1012.2 mb 0.00 in0.0 mm 0.00 in0.0 mm 0.03 in0.8 mm
06:42 PM 79.6°F26.4°C 71.5°F21.9°C 76% 4.0 mph SSW6.4 kmh SSW 6.0 mph9.7 kmh 29.88 in1011.9 mb 0.00 in0.0 mm 0.00 in0.0 mm 0.03 in0.8 mm
06:43 PM 79.6°F26.4°C 71.5°F21.9°C 76% 3.0 mph ENE4.8 kmh ENE 6.0 mph9.7 kmh 29.89 in1012.2 mb 0.00 in0.0 mm 0.00 in0.0 mm 0.03 in0.8 mm
06:44 PM 79.6°F26.4°C 71.5°F21.9°C 76% 3.0 mph SSE4.8 kmh SSE 6.0 mph9.7 kmh 29.88 in1011.9 mb 0.00 in0.0 mm 0.00 in0.0 mm 0.03 in0.8 mm
06:45 PM 79.6°F26.4°C 71.5°F21.9°C 76% 3.0 mph S4.8 kmh S 6.0 mph9.7 kmh 29.89 in1012.2 mb 0.00 in0.0 mm 0.00 in0.0 mm 0.03 in0.8 mm
06:46 PM 79.6°F26.4°C 71.5°F21.9°C 76% 5.0 mph SSW8.0 kmh SSW 6.0 mph9.7 kmh 29.89 in1012.2 mb 0.00 in0.0 mm 0.00 in0.0 mm 0.03 in0.8 mm
06:47 PM 79.6°F26.4°C 71.5°F21.9°C 76% 5.0 mph SSW8.0 kmh SSW 6.0 mph9.7 kmh 29.89 in1012.2 mb 0.00 in0.0 mm 0.00 in0.0 mm 0.03 in0.8 mm
06:48 PM 79.6°F26.4°C 71.5°F21.9°C 76% 4.0 mph S6.4 kmh S 6.0 mph9.7 kmh 29.89 in1012.2 mb 0.00 in0.0 mm 0.00 in0.0 mm 0.03 in0.8 mm
06:49 PM 79.4°F26.3°C 71.3°F21.8°C 76% 5.0 mph SSW8.0 kmh SSW 6.0 mph9.7 kmh 29.89 in1012.2 mb 0.00 in0.0 mm 0.00 in0.0 mm 0.03 in0.8 mm
06:50 PM 79.3°F26.3°C 71.2°F21.8°C 76% 5.0 mph SW8.0 kmh SW 6.0 mph9.7 kmh 29.89 in1012.2 mb 0.00 in0.0 mm 0.00 in0.0 mm 0.03 in0.8 mm
06:51 PM 79.3°F26.3°C 71.2°F21.8°C 76% 6.0 mph S9.7 kmh S 6.0 mph9.7 kmh 29.89 in1012.2 mb 0.00 in0.0 mm 0.00 in0.0 mm 0.03 in0.8 mm
06:52 PM 79.3°F26.3°C 71.2°F21.8°C 76% 5.0 mph SW8.0 kmh SW 6.0 mph9.7 kmh 29.89 in1012.2 mb 0.00 in0.0 mm 0.00 in0.0 mm 0.03 in0.8 mm
06:53 PM 79.0°F26.1°C 71.7°F22.1°C 78% 6.0 mph S9.7 kmh S 6.0 mph9.7 kmh 29.89 in1012.2 mb 0.00 in0.0 mm 0.00 in0.0 mm 0.03 in0.8 mm
06:54 PM 79.0°F26.1°C 71.7°F22.1°C 78% 5.0 mph S8.0 kmh S 6.0 mph9.7 kmh 29.89 in1012.2 mb 0.00 in0.0 mm 0.00 in0.0 mm 0.03 in0.8 mm
06:55 PM 79.0°F26.1°C 71.7°F22.1°C 78% 6.0 mph SSW9.7 kmh SSW 6.0 mph9.7 kmh 29.89 in1012.2 mb 0.00 in0.0 mm 0.00 in0.0 mm 0.03 in0.8 mm
06:56 PM 79.0°F26.1°C 71.7°F22.1°C 78% 6.0 mph S9.7 kmh S 6.0 mph9.7 kmh 29.89 in1012.2 mb 0.00 in0.0 mm 0.00 in0.0 mm 0.03 in0.8 mm
06:57 PM 79.0°F26.1°C 71.7°F22.1°C 78% 6.0 mph SSW9.7 kmh SSW 6.0 mph9.7 kmh 29.89 in1012.2 mb 0.00 in0.0 mm 0.00 in0.0 mm 0.03 in0.8 mm
06:58 PM 78.8°F26.0°C 71.9°F22.2°C 79% 6.0 mph SSW9.7 kmh SSW 6.0 mph9.7 kmh 29.89 in1012.2 mb 0.00 in0.0 mm 0.00 in0.0 mm 0.03 in0.8 mm
06:59 PM 78.8°F26.0°C 71.9°F22.2°C 79% 4.0 mph SW6.4 kmh SW 6.0 mph9.7 kmh 29.89 in1012.2 mb 0.00 in0.0 mm 0.00 in0.0 mm 0.03 in0.8 mm
07:00 PM 78.8°F26.0°C 71.9°F22.2°C 79% 4.0 mph SW6.4 kmh SW 6.0 mph9.7 kmh 29.89 in1012.2 mb 0.00 in0.0 mm 0.00 in0.0 mm 0.03 in0.8 mm
07:01 PM 78.5°F25.8°C 71.6°F22.0°C 79% 4.0 mph S6.4 kmh S 6.0 mph9.7 kmh 29.89 in1012.2 mb 0.00 in0.0 mm 0.00 in0.0 mm 0.03 in0.8 mm
07:02 PM 78.5°F25.8°C 71.6°F22.0°C 79% 4.0 mph SSW6.4 kmh SSW 6.0 mph9.7 kmh 29.89 in1012.2 mb 0.00 in0.0 mm 0.00 in0.0 mm 0.03 in0.8 mm
07:03 PM 78.5°F25.8°C 71.6°F22.0°C 79% 5.0 mph S8.0 kmh S 6.0 mph9.7 kmh 29.89 in1012.2 mb 0.00 in0.0 mm 0.00 in0.0 mm 0.03 in0.8 mm
07:04 PM 78.4°F25.8°C 71.5°F21.9°C 79% 4.0 mph SSE6.4 kmh SSE 6.0 mph9.7 kmh 29.89 in1012.2 mb 0.00 in0.0 mm 0.00 in0.0 mm 0.03 in0.8 mm
07:05 PM 78.3°F25.7°C 71.4°F21.9°C 79% 4.0 mph SSW6.4 kmh SSW 6.0 mph9.7 kmh 29.89 in1012.2 mb 0.00 in0.0 mm 0.00 in0.0 mm 0.03 in0.8 mm
07:06 PM 78.3°F25.7°C 71.7°F22.1°C 80% 4.0 mph SSW6.4 kmh SSW 6.0 mph9.7 kmh 29.90 in1012.5 mb 0.00 in0.0 mm 0.00 in0.0 mm 0.03 in0.8 mm
07:07 PM 78.3°F25.7°C 71.7°F22.1°C 80% 4.0 mph SSW6.4 kmh SSW 6.0 mph9.7 kmh 29.90 in1012.5 mb 0.00 in0.0 mm 0.00 in0.0 mm 0.03 in0.8 mm
07:08 PM 78.3°F25.7°C 71.7°F22.1°C 80% 3.0 mph SSW4.8 kmh SSW 6.0 mph9.7 kmh 29.90 in1012.5 mb 0.00 in0.0 mm 0.00 in0.0 mm 0.03 in0.8 mm
07:09 PM 78.3°F25.7°C 71.7°F22.1°C 80% 4.0 mph SSW6.4 kmh SSW 6.0 mph9.7 kmh 29.89 in1012.2 mb 0.00 in0.0 mm 0.00 in0.0 mm 0.03 in0.8 mm
07:10 PM 78.3°F25.7°C 71.7°F22.1°C 80% 4.0 mph SSW6.4 kmh SSW 6.0 mph9.7 kmh 29.89 in1012.2 mb 0.00 in0.0 mm 0.00 in0.0 mm 0.03 in0.8 mm
07:11 PM 78.3°F25.7°C 71.7°F22.1°C 80% 5.0 mph SSW8.0 kmh SSW 6.0 mph9.7 kmh 29.89 in1012.2 mb 0.00 in0.0 mm 0.00 in0.0 mm 0.03 in0.8 mm
07:12 PM 78.3°F25.7°C 71.7°F22.1°C 80% 4.0 mph S6.4 kmh S 6.0 mph9.7 kmh 29.89 in1012.2 mb 0.00 in0.0 mm 0.00 in0.0 mm 0.03 in0.8 mm
07:13 PM 78.3°F25.7°C 71.7°F22.1°C 80% 4.0 mph S6.4 kmh S 6.0 mph9.7 kmh 29.89 in1012.2 mb 0.00 in0.0 mm 0.00 in0.0 mm 0.03 in0.8 mm
07:14 PM 78.3°F25.7°C 71.7°F22.1°C 80% 3.0 mph S4.8 kmh S 6.0 mph9.7 kmh 29.89 in1012.2 mb 0.00 in0.0 mm 0.00 in0.0 mm 0.03 in0.8 mm
07:15 PM 78.3°F25.7°C 71.7°F22.1°C 80% 5.0 mph S8.0 kmh S 5.0 mph8.0 kmh 29.89 in1012.2 mb 0.00 in0.0 mm 0.00 in0.0 mm 0.03 in0.8 mm
07:16 PM 78.3°F25.7°C 71.7°F22.1°C 80% 3.0 mph SSE4.8 kmh SSE 5.0 mph8.0 kmh 29.89 in1012.2 mb 0.00 in0.0 mm 0.00 in0.0 mm 0.03 in0.8 mm
07:17 PM 78.3°F25.7°C 71.7°F22.1°C 80% 4.0 mph SSW6.4 kmh SSW 5.0 mph8.0 kmh 29.89 in1012.2 mb 0.00 in0.0 mm 0.00 in0.0 mm 0.03 in0.8 mm
07:18 PM 78.1°F25.6°C 71.5°F21.9°C 80% 4.0 mph S6.4 kmh S 5.0 mph8.0 kmh 29.89 in1012.2 mb 0.00 in0.0 mm 0.00 in0.0 mm 0.03 in0.8 mm
07:19 PM 78.1°F25.6°C 71.5°F21.9°C 80% 2.0 mph SSW3.2 kmh SSW 5.0 mph8.0 kmh 29.89 in1012.2 mb 0.00 in0.0 mm 0.00 in0.0 mm 0.03 in0.8 mm
07:20 PM 77.8°F25.4°C 71.2°F21.8°C 80% 4.0 mph SSW6.4 kmh SSW 5.0 mph8.0 kmh 29.89 in1012.2 mb 0.00 in0.0 mm 0.00 in0.0 mm 0.03 in0.8 mm
07:21 PM 77.8°F25.4°C 71.2°F21.8°C 80% 3.0 mph S4.8 kmh S 5.0 mph8.0 kmh 29.89 in1012.2 mb 0.00 in0.0 mm 0.00 in0.0 mm 0.03 in0.8 mm
07:22 PM 77.8°F25.4°C 71.2°F21.8°C 80% 2.0 mph S3.2 kmh S 5.0 mph8.0 kmh 29.89 in1012.2 mb 0.00 in0.0 mm 0.00 in0.0 mm 0.03 in0.8 mm
07:23 PM 77.8°F25.4°C 71.2°F21.8°C 80% 3.0 mph SSE4.8 kmh SSE 5.0 mph8.0 kmh 29.89 in1012.2 mb 0.00 in0.0 mm 0.00 in0.0 mm 0.03 in0.8 mm
07:24 PM 77.8°F25.4°C 71.2°F21.8°C 80% 3.0 mph SSW4.8 kmh SSW 5.0 mph8.0 kmh 29.90 in1012.5 mb 0.00 in0.0 mm 0.00 in0.0 mm 0.03 in0.8 mm
07:25 PM 77.6°F25.3°C 71.4°F21.9°C 81% 3.0 mph S4.8 kmh S 5.0 mph8.0 kmh 29.89 in1012.2 mb 0.00 in0.0 mm 0.00 in0.0 mm 0.03 in0.8 mm
07:26 PM 77.6°F25.3°C 71.4°F21.9°C 81% 2.0 mph S3.2 kmh S 5.0 mph8.0 kmh 29.90 in1012.5 mb 0.00 in0.0 mm 0.00 in0.0 mm 0.03 in0.8 mm
07:27 PM 77.6°F25.3°C 71.4°F21.9°C 81% 3.0 mph SSE4.8 kmh SSE 5.0 mph8.0 kmh 29.90 in1012.5 mb 0.00 in0.0 mm 0.00 in0.0 mm 0.03 in0.8 mm
07:28 PM 77.5°F25.3°C 71.3°F21.8°C 81% 3.0 mph S4.8 kmh S 5.0 mph8.0 kmh 29.90 in1012.5 mb 0.00 in0.0 mm 0.00 in0.0 mm 0.03 in0.8 mm
07:29 PM 77.5°F25.3°C 71.3°F21.8°C 81% 3.0 mph S4.8 kmh S 5.0 mph8.0 kmh 29.90 in1012.5 mb 0.00 in0.0 mm 0.00 in0.0 mm 0.03 in0.8 mm
07:30 PM 77.4°F25.2°C 71.2°F21.8°C 81% 2.0 mph SSE3.2 kmh SSE 5.0 mph8.0 kmh 29.90 in1012.5 mb 0.00 in0.0 mm 0.00 in0.0 mm 0.03 in0.8 mm
07:31 PM 77.4°F25.2°C 71.2°F21.8°C 81% 3.0 mph SSW4.8 kmh SSW 4.0 mph6.4 kmh 29.90 in1012.5 mb 0.00 in0.0 mm 0.00 in0.0 mm 0.03 in0.8 mm
07:32 PM 77.4°F25.2°C 71.2°F21.8°C 81% 4.0 mph S6.4 kmh S 4.0 mph6.4 kmh 29.90 in1012.5 mb 0.00 in0.0 mm 0.00 in0.0 mm 0.03 in0.8 mm
07:33 PM 77.4°F25.2°C 71.2°F21.8°C 81% 1.0 mph S1.6 kmh S 4.0 mph6.4 kmh 29.90 in1012.5 mb 0.00 in0.0 mm 0.00 in0.0 mm 0.03 in0.8 mm
07:34 PM 77.4°F25.2°C 71.2°F21.8°C 81% 3.0 mph S4.8 kmh S 4.0 mph6.4 kmh 29.90 in1012.5 mb 0.00 in0.0 mm 0.00 in0.0 mm 0.03 in0.8 mm
07:35 PM 77.4°F25.2°C 71.2°F21.8°C 81% 4.0 mph S6.4 kmh S 4.0 mph6.4 kmh 29.90 in1012.5 mb 0.00 in0.0 mm 0.00 in0.0 mm 0.03 in0.8 mm
07:36 PM 77.4°F25.2°C 71.2°F21.8°C 81% 4.0 mph SSW6.4 kmh SSW 4.0 mph6.4 kmh 29.90 in1012.5 mb 0.00 in0.0 mm 0.00 in0.0 mm 0.03 in0.8 mm
07:37 PM 77.4°F25.2°C 71.2°F21.8°C 81% 3.0 mph SSE4.8 kmh SSE 4.0 mph6.4 kmh 29.90 in1012.5 mb 0.00 in0.0 mm 0.00 in0.0 mm 0.03 in0.8 mm
07:38 PM 77.4°F25.2°C 71.2°F21.8°C 81% 4.0 mph S6.4 kmh S 4.0 mph6.4 kmh 29.90 in1012.5 mb 0.00 in0.0 mm 0.00 in0.0 mm 0.03 in0.8 mm
07:39 PM 77.4°F25.2°C 71.2°F21.8°C 81% 4.0 mph S6.4 kmh S 4.0 mph6.4 kmh 29.90 in1012.5 mb 0.00 in0.0 mm 0.00 in0.0 mm 0.03 in0.8 mm
07:40 PM 77.4°F25.2°C 71.2°F21.8°C 81% 3.0 mph SSE4.8 kmh SSE 4.0 mph6.4 kmh 29.90 in1012.5 mb 0.00 in0.0 mm 0.00 in0.0 mm 0.03 in0.8 mm
07:41 PM 77.4°F25.2°C 71.2°F21.8°C 81% 3.0 mph SW4.8 kmh SW 4.0 mph6.4 kmh 29.90 in1012.5 mb 0.00 in0.0 mm 0.00 in0.0 mm 0.03 in0.8 mm
07:42 PM 77.4°F25.2°C 71.2°F21.8°C 81% 3.0 mph S4.8 kmh S 4.0 mph6.4 kmh 29.91 in1012.9 mb 0.00 in0.0 mm 0.00 in0.0 mm 0.03 in0.8 mm
07:43 PM 77.4°F25.2°C 71.2°F21.8°C 81% 4.0 mph S6.4 kmh S 4.0 mph6.4 kmh 29.90 in1012.5 mb 0.00 in0.0 mm 0.00 in0.0 mm 0.03 in0.8 mm
07:44 PM 77.1°F25.1°C 70.9°F21.6°C 81% 3.0 mph SE4.8 kmh SE 4.0 mph6.4 kmh 29.91 in1012.9 mb 0.00 in0.0 mm 0.00 in0.0 mm 0.03 in0.8 mm
07:45 PM 77.1°F25.1°C 70.9°F21.6°C 81% 3.0 mph SSE4.8 kmh SSE 4.0 mph6.4 kmh 29.90 in1012.5 mb 0.00 in0.0 mm 0.00 in0.0 mm 0.03 in0.8 mm
07:46 PM 76.9°F24.9°C 70.7°F21.5°C 81% 4.0 mph SSW6.4 kmh SSW 4.0 mph6.4 kmh 29.90 in1012.5 mb 0.00 in0.0 mm 0.00 in0.0 mm 0.03 in0.8 mm
07:47 PM 76.9°F24.9°C 71.4°F21.9°C 83% 3.0 mph SSW4.8 kmh SSW 4.0 mph6.4 kmh 29.90 in1012.5 mb 0.00 in0.0 mm 0.00 in0.0 mm 0.03 in0.8 mm
07:48 PM 76.8°F24.9°C 71.3°F21.8°C 83% 2.0 mph SSW3.2 kmh SSW 4.0 mph6.4 kmh 29.91 in1012.9 mb 0.00 in0.0 mm 0.00 in0.0 mm 0.03 in0.8 mm
07:49 PM 76.5°F24.7°C 71.0°F21.7°C 83% 3.0 mph S4.8 kmh S 4.0 mph6.4 kmh 29.90 in1012.5 mb 0.00 in0.0 mm 0.00 in0.0 mm 0.03 in0.8 mm
07:50 PM 76.5°F24.7°C 71.0°F21.7°C 83% 4.0 mph S6.4 kmh S 4.0 mph6.4 kmh 29.90 in1012.5 mb 0.00 in0.0 mm 0.00 in0.0 mm 0.03 in0.8 mm
07:51 PM 76.4°F24.7°C 70.9°F21.6°C 83% 3.0 mph SE4.8 kmh SE 4.0 mph6.4 kmh 29.90 in1012.5 mb 0.00 in0.0 mm 0.00 in0.0 mm 0.03 in0.8 mm
07:52 PM 76.4°F24.7°C 70.9°F21.6°C 83% 2.0 mph SW3.2 kmh SW 4.0 mph6.4 kmh 29.91 in1012.9 mb 0.00 in0.0 mm 0.00 in0.0 mm 0.03 in0.8 mm
07:53 PM 76.4°F24.7°C 70.9°F21.6°C 83% 3.0 mph S4.8 kmh S 4.0 mph6.4 kmh 29.90 in1012.5 mb 0.00 in0.0 mm 0.00 in0.0 mm 0.03 in0.8 mm
07:54 PM 76.3°F24.6°C 70.8°F21.6°C 83% 3.0 mph S4.8 kmh S 4.0 mph6.4 kmh 29.91 in1012.9 mb 0.00 in0.0 mm 0.00 in0.0 mm 0.03 in0.8 mm
07:55 PM 76.0°F24.4°C 71.2°F21.8°C 85% 5.0 mph S8.0 kmh S 5.0 mph8.0 kmh 29.90 in1012.5 mb 0.00 in0.0 mm 0.00 in0.0 mm 0.03 in0.8 mm
07:56 PM 76.0°F24.4°C 71.2°F21.8°C 85% 4.0 mph SSW6.4 kmh SSW 5.0 mph8.0 kmh 29.91 in1012.9 mb 0.00 in0.0 mm 0.00 in0.0 mm 0.03 in0.8 mm
07:57 PM 75.9°F24.4°C 71.4°F21.9°C 86% 4.0 mph SSE6.4 kmh SSE 5.0 mph8.0 kmh 29.91 in1012.9 mb 0.00 in0.0 mm 0.00 in0.0 mm 0.03 in0.8 mm
07:58 PM 75.9°F24.4°C 71.4°F21.9°C 86% 5.0 mph SSW8.0 kmh SSW 5.0 mph8.0 kmh 29.91 in1012.9 mb 0.00 in0.0 mm 0.00 in0.0 mm 0.03 in0.8 mm
07:59 PM 75.6°F24.2°C 71.1°F21.7°C 86% 5.0 mph S8.0 kmh S 5.0 mph8.0 kmh 29.91 in1012.9 mb 0.00 in0.0 mm 0.00 in0.0 mm 0.03 in0.8 mm
08:00 PM 75.5°F24.2°C 71.0°F21.7°C 86% 4.0 mph SSE6.4 kmh SSE 5.0 mph8.0 kmh 29.91 in1012.9 mb 0.00 in0.0 mm 0.00 in0.0 mm 0.03 in0.8 mm
08:01 PM 75.5°F24.2°C 71.0°F21.7°C 86% 4.0 mph SSE6.4 kmh SSE 5.0 mph8.0 kmh 29.91 in1012.9 mb 0.00 in0.0 mm 0.00 in0.0 mm 0.03 in0.8 mm
08:02 PM 75.3°F24.1°C 70.8°F21.6°C 86% 4.0 mph SSE6.4 kmh SSE 6.0 mph9.7 kmh 29.92 in1013.2 mb 0.00 in0.0 mm 0.00 in0.0 mm 0.03 in0.8 mm
08:03 PM 75.3°F24.1°C 70.8°F21.6°C 86% 4.0 mph SSW6.4 kmh SSW 6.0 mph9.7 kmh 29.91 in1012.9 mb 0.00 in0.0 mm 0.00 in0.0 mm 0.03 in0.8 mm
08:04 PM 75.3°F24.1°C 70.8°F21.6°C 86% 2.0 mph SW3.2 kmh SW 6.0 mph9.7 kmh 29.91 in1012.9 mb 0.00 in0.0 mm 0.00 in0.0 mm 0.03 in0.8 mm
08:05 PM 75.3°F24.1°C 70.8°F21.6°C 86% 3.0 mph S4.8 kmh S 6.0 mph9.7 kmh 29.91 in1012.9 mb 0.00 in0.0 mm 0.00 in0.0 mm 0.03 in0.8 mm
08:06 PM 75.1°F23.9°C 70.7°F21.5°C 86% 4.0 mph S6.4 kmh S 6.0 mph9.7 kmh 29.91 in1012.9 mb 0.00 in0.0 mm 0.00 in0.0 mm 0.03 in0.8 mm
08:07 PM 75.0°F23.9°C 70.6°F21.4°C 86% 4.0 mph S6.4 kmh S 6.0 mph9.7 kmh 29.91 in1012.9 mb 0.00 in0.0 mm 0.00 in0.0 mm 0.03 in0.8 mm
08:08 PM 75.0°F23.9°C 70.6°F21.4°C 86% 3.0 mph SSW4.8 kmh SSW 6.0 mph9.7 kmh 29.91 in1012.9 mb 0.00 in0.0 mm 0.00 in0.0 mm 0.03 in0.8 mm
08:09 PM 75.0°F23.9°C 70.6°F21.4°C 86% 3.0 mph S4.8 kmh S 6.0 mph9.7 kmh 29.91 in1012.9 mb 0.00 in0.0 mm 0.00 in0.0 mm 0.03 in0.8 mm
08:10 PM 75.0°F23.9°C 70.6°F21.4°C 86% 2.0 mph SSE3.2 kmh SSE 6.0 mph9.7 kmh 29.91 in1012.9 mb 0.00 in0.0 mm 0.00 in0.0 mm 0.03 in0.8 mm
08:11 PM 74.8°F23.8°C 70.4°F21.3°C 86% 3.0 mph SSE4.8 kmh SSE 6.0 mph9.7 kmh 29.91 in1012.9 mb 0.00 in0.0 mm 0.00 in0.0 mm 0.03 in0.8 mm
08:12 PM 74.8°F23.8°C 71.0°F21.7°C 88% 3.0 mph S4.8 kmh S 4.0 mph6.4 kmh 29.92 in1013.2 mb 0.00 in0.0 mm 0.00 in0.0 mm 0.03 in0.8 mm
08:13 PM 74.8°F23.8°C 71.0°F21.7°C 88% 3.0 mph SSW4.8 kmh SSW 4.0 mph6.4 kmh 29.91 in1012.9 mb 0.00 in0.0 mm 0.00 in0.0 mm 0.03 in0.8 mm
08:14 PM 74.6°F23.7°C 70.8°F21.6°C 88% 3.0 mph SSW4.8 kmh SSW 4.0 mph6.4 kmh 29.91 in1012.9 mb 0.00 in0.0 mm 0.00 in0.0 mm 0.03 in0.8 mm
08:15 PM 74.6°F23.7°C 70.8°F21.6°C 88% 2.0 mph SSW3.2 kmh SSW 4.0 mph6.4 kmh 29.92 in1013.2 mb 0.00 in0.0 mm 0.00 in0.0 mm 0.03 in0.8 mm
08:16 PM 74.6°F23.7°C 70.8°F21.6°C 88% 3.0 mph SSE4.8 kmh SSE 4.0 mph6.4 kmh 29.92 in1013.2 mb 0.00 in0.0 mm 0.00 in0.0 mm 0.03 in0.8 mm
08:17 PM 74.6°F23.7°C 70.8°F21.6°C 88% 2.0 mph SSW3.2 kmh SSW 4.0 mph6.4 kmh 29.92 in1013.2 mb 0.00 in0.0 mm 0.00 in0.0 mm 0.03 in0.8 mm
08:18 PM 74.6°F23.7°C 70.8°F21.6°C 88% 3.0 mph S4.8 kmh S 4.0 mph6.4 kmh 29.92 in1013.2 mb 0.00 in0.0 mm 0.00 in0.0 mm 0.03 in0.8 mm
08:19 PM 74.6°F23.7°C 70.8°F21.6°C 88% 3.0 mph SSE4.8 kmh SSE 4.0 mph6.4 kmh 29.91 in1012.9 mb 0.00 in0.0 mm 0.00 in0.0 mm 0.03 in0.8 mm
08:20 PM 74.6°F23.7°C 70.8°F21.6°C 88% 2.0 mph SSW3.2 kmh SSW 4.0 mph6.4 kmh 29.92 in1013.2 mb 0.00 in0.0 mm 0.00 in0.0 mm 0.03 in0.8 mm
08:21 PM 74.4°F23.6°C 70.6°F21.4°C 88% 2.0 mph SSW3.2 kmh SSW 4.0 mph6.4 kmh 29.92 in1013.2 mb 0.00 in0.0 mm 0.00 in0.0 mm 0.03 in0.8 mm
08:22 PM 74.3°F23.5°C 70.5°F21.4°C 88% 3.0 mph S4.8 kmh S 4.0 mph6.4 kmh 29.92 in1013.2 mb 0.00 in0.0 mm 0.00 in0.0 mm 0.03 in0.8 mm
08:23 PM 74.3°F23.5°C 70.5°F21.4°C 88% 3.0 mph SSE4.8 kmh SSE 4.0 mph6.4 kmh 29.91 in1012.9 mb 0.00 in0.0 mm 0.00 in0.0 mm 0.03 in0.8 mm
08:24 PM 74.3°F23.5°C 71.2°F21.8°C 90% 3.0 mph S4.8 kmh S 4.0 mph6.4 kmh 29.92 in1013.2 mb 0.00 in0.0 mm 0.00 in0.0 mm 0.03 in0.8 mm
08:25 PM 74.3°F23.5°C 71.2°F21.8°C 90% 2.0 mph S3.2 kmh S 4.0 mph6.4 kmh 29.92 in1013.2 mb 0.00 in0.0 mm 0.00 in0.0 mm 0.03 in0.8 mm
08:26 PM 74.3°F23.5°C 71.2°F21.8°C 90% 2.0 mph SSE3.2 kmh SSE 4.0 mph6.4 kmh 29.92 in1013.2 mb 0.00 in0.0 mm 0.00 in0.0 mm 0.03 in0.8 mm
08:27 PM 74.3°F23.5°C 71.2°F21.8°C 90% 3.0 mph SSE4.8 kmh SSE 4.0 mph6.4 kmh 29.92 in1013.2 mb 0.00 in0.0 mm 0.00 in0.0 mm 0.03 in0.8 mm
08:28 PM 74.0°F23.3°C 70.9°F21.6°C 90% 4.0 mph SSE6.4 kmh SSE 4.0 mph6.4 kmh 29.92 in1013.2 mb 0.00 in0.0 mm 0.00 in0.0 mm 0.03 in0.8 mm
08:29 PM 74.0°F23.3°C 70.9°F21.6°C 90% 3.0 mph SE4.8 kmh SE 4.0 mph6.4 kmh 29.92 in1013.2 mb 0.00 in0.0 mm 0.00 in0.0 mm 0.03 in0.8 mm
08:30 PM 74.0°F23.3°C 70.9°F21.6°C 90% 2.0 mph SSE3.2 kmh SSE 4.0 mph6.4 kmh 29.92 in1013.2 mb 0.00 in0.0 mm 0.00 in0.0 mm 0.03 in0.8 mm
08:31 PM 74.0°F23.3°C 70.9°F21.6°C 90% 3.0 mph S4.8 kmh S 4.0 mph6.4 kmh 29.92 in1013.2 mb 0.00 in0.0 mm 0.00 in0.0 mm 0.03 in0.8 mm
08:32 PM 74.0°F23.3°C 70.9°F21.6°C 90% 3.0 mph S4.8 kmh S 4.0 mph6.4 kmh 29.93 in1013.5 mb 0.00 in0.0 mm 0.00 in0.0 mm 0.03 in0.8 mm
08:33 PM 74.0°F23.3°C 70.9°F21.6°C 90% 4.0 mph S6.4 kmh S 4.0 mph6.4 kmh 29.92 in1013.2 mb 0.00 in0.0 mm 0.00 in0.0 mm 0.03 in0.8 mm
08:34 PM 74.0°F23.3°C 70.9°F21.6°C 90% 3.0 mph SSE4.8 kmh SSE 4.0 mph6.4 kmh 29.92 in1013.2 mb 0.00 in0.0 mm 0.00 in0.0 mm 0.03 in0.8 mm
08:35 PM 74.0°F23.3°C 70.9°F21.6°C 90% 4.0 mph SSW6.4 kmh SSW 4.0 mph6.4 kmh 29.92 in1013.2 mb 0.00 in0.0 mm 0.00 in0.0 mm 0.03 in0.8 mm
08:36 PM 74.0°F23.3°C 70.9°F21.6°C 90% 4.0 mph ESE6.4 kmh ESE 5.0 mph8.0 kmh 29.92 in1013.2 mb 0.00 in0.0 mm 0.00 in0.0 mm 0.03 in0.8 mm
08:37 PM 74.0°F23.3°C 70.9°F21.6°C 90% 2.0 mph W3.2 kmh W 5.0 mph8.0 kmh 29.92 in1013.2 mb 0.00 in0.0 mm 0.00 in0.0 mm 0.03 in0.8 mm
08:38 PM 74.0°F23.3°C 70.9°F21.6°C 90% 3.0 mph W4.8 kmh W 5.0 mph8.0 kmh 29.92 in1013.2 mb 0.00 in0.0 mm 0.00 in0.0 mm 0.03 in0.8 mm
08:39 PM 74.0°F23.3°C 70.9°F21.6°C 90% 4.0 mph SE6.4 kmh SE 5.0 mph8.0 kmh 29.92 in1013.2 mb 0.00 in0.0 mm 0.00 in0.0 mm 0.03 in0.8 mm
08:40 PM 74.0°F23.3°C 70.9°F21.6°C 90% 3.0 mph SSW4.8 kmh SSW 5.0 mph8.0 kmh 29.93 in1013.5 mb 0.00 in0.0 mm 0.00 in0.0 mm 0.03 in0.8 mm
08:41 PM 74.0°F23.3°C 70.9°F21.6°C 90% 5.0 mph SSW8.0 kmh SSW 5.0 mph8.0 kmh 29.93 in1013.5 mb 0.00 in0.0 mm 0.00 in0.0 mm 0.03 in0.8 mm
08:42 PM 74.0°F23.3°C 70.9°F21.6°C 90% 4.0 mph S6.4 kmh S 5.0 mph8.0 kmh 29.93 in1013.5 mb 0.00 in0.0 mm 0.00 in0.0 mm 0.03 in0.8 mm
08:43 PM 74.0°F23.3°C 70.9°F21.6°C 90% 2.0 mph ESE3.2 kmh ESE 5.0 mph8.0 kmh 29.92 in1013.2 mb 0.00 in0.0 mm 0.00 in0.0 mm 0.03 in0.8 mm
08:44 PM 74.0°F23.3°C 70.9°F21.6°C 90% 2.0 mph SSW3.2 kmh SSW 5.0 mph8.0 kmh 29.93 in1013.5 mb 0.00 in0.0 mm 0.00 in0.0 mm 0.03 in0.8 mm
08:45 PM 74.0°F23.3°C 70.9°F21.6°C 90% 3.0 mph SE4.8 kmh SE 5.0 mph8.0 kmh 29.93 in1013.5 mb 0.00 in0.0 mm 0.00 in0.0 mm 0.03 in0.8 mm
08:46 PM 74.0°F23.3°C 70.9°F21.6°C 90% 2.0 mph SSE3.2 kmh SSE 5.0 mph8.0 kmh 29.93 in1013.5 mb 0.00 in0.0 mm 0.00 in0.0 mm 0.03 in0.8 mm
08:47 PM 74.0°F23.3°C 70.9°F21.6°C 90% 4.0 mph SSW6.4 kmh SSW 5.0 mph8.0 kmh 29.93 in1013.5 mb 0.00 in0.0 mm 0.00 in0.0 mm 0.03 in0.8 mm
08:48 PM 74.0°F23.3°C 70.9°F21.6°C 90% 3.0 mph S4.8 kmh S 5.0 mph8.0 kmh 29.93 in1013.5 mb 0.00 in0.0 mm 0.00 in0.0 mm 0.03 in0.8 mm
08:49 PM 74.0°F23.3°C 70.9°F21.6°C 90% 4.0 mph S6.4 kmh S 5.0 mph8.0 kmh 29.92 in1013.2 mb 0.00 in0.0 mm 0.00 in0.0 mm 0.03 in0.8 mm
08:50 PM 74.0°F23.3°C 70.9°F21.6°C 90% 4.0 mph ESE6.4 kmh ESE 5.0 mph8.0 kmh 29.92 in1013.2 mb 0.00 in0.0 mm 0.00 in0.0 mm 0.03 in0.8 mm
08:51 PM 74.0°F23.3°C 70.9°F21.6°C 90% 3.0 mph SSE4.8 kmh SSE 5.0 mph8.0 kmh 29.92 in1013.2 mb 0.00 in0.0 mm 0.00 in0.0 mm 0.03 in0.8 mm
08:52 PM 74.0°F23.3°C 70.9°F21.6°C 90% 3.0 mph SSE4.8 kmh SSE 4.0 mph6.4 kmh 29.93 in1013.5 mb 0.00 in0.0 mm 0.00 in0.0 mm 0.03 in0.8 mm
08:53 PM 74.0°F23.3°C 70.9°F21.6°C 90% 3.0 mph S4.8 kmh S 4.0 mph6.4 kmh 29.92 in1013.2 mb 0.00 in0.0 mm 0.00 in0.0 mm 0.03 in0.8 mm
08:54 PM 74.0°F23.3°C 70.9°F21.6°C 90% 3.0 mph S4.8 kmh S 4.0 mph6.4 kmh 29.93 in1013.5 mb 0.00 in0.0 mm 0.00 in0.0 mm 0.03 in0.8 mm
08:55 PM 74.0°F23.3°C 70.9°F21.6°C 90% 2.0 mph SSW3.2 kmh SSW 4.0 mph6.4 kmh 29.93 in1013.5 mb 0.00 in0.0 mm 0.00 in0.0 mm 0.03 in0.8 mm
08:56 PM 74.0°F23.3°C 70.9°F21.6°C 90% 3.0 mph S4.8 kmh S 4.0 mph6.4 kmh 29.93 in1013.5 mb 0.00 in0.0 mm 0.00 in0.0 mm 0.03 in0.8 mm
08:57 PM 74.0°F23.3°C 71.2°F21.8°C 91% 1.0 mph S1.6 kmh S 4.0 mph6.4 kmh 29.93 in1013.5 mb 0.00 in0.0 mm 0.00 in0.0 mm 0.03 in0.8 mm
08:58 PM 74.0°F23.3°C 71.2°F21.8°C 91% 2.0 mph SSE3.2 kmh SSE 4.0 mph6.4 kmh 29.93 in1013.5 mb 0.00 in0.0 mm 0.00 in0.0 mm 0.03 in0.8 mm
08:59 PM 73.9°F23.3°C 71.1°F21.7°C 91% 2.0 mph SE3.2 kmh SE 4.0 mph6.4 kmh 29.93 in1013.5 mb 0.00 in0.0 mm 0.00 in0.0 mm 0.03 in0.8 mm
09:00 PM 73.9°F23.3°C 71.1°F21.7°C 91% 3.0 mph S4.8 kmh S 4.0 mph6.4 kmh 29.93 in1013.5 mb 0.00 in0.0 mm 0.00 in0.0 mm 0.03 in0.8 mm
09:01 PM 73.9°F23.3°C 71.1°F21.7°C 91% 2.0 mph S3.2 kmh S 4.0 mph6.4 kmh 29.93 in1013.5 mb 0.00 in0.0 mm 0.00 in0.0 mm 0.03 in0.8 mm
09:02 PM 73.9°F23.3°C 71.1°F21.7°C 91% 4.0 mph S6.4 kmh S 4.0 mph6.4 kmh 29.93 in1013.5 mb 0.00 in0.0 mm 0.00 in0.0 mm 0.03 in0.8 mm
09:03 PM 73.9°F23.3°C 71.1°F21.7°C 91% 2.0 mph SE3.2 kmh SE 4.0 mph6.4 kmh 29.93 in1013.5 mb 0.00 in0.0 mm 0.00 in0.0 mm 0.03 in0.8 mm
09:04 PM 73.9°F23.3°C 71.1°F21.7°C 91% 2.0 mph S3.2 kmh S 4.0 mph6.4 kmh 29.93 in1013.5 mb 0.00 in0.0 mm 0.00 in0.0 mm 0.03 in0.8 mm
09:05 PM 73.9°F23.3°C 71.1°F21.7°C 91% 2.0 mph SE3.2 kmh SE 4.0 mph6.4 kmh 29.93 in1013.5 mb 0.00 in0.0 mm 0.00 in0.0 mm 0.03 in0.8 mm
09:06 PM 73.9°F23.3°C 71.1°F21.7°C 91% 3.0 mph S4.8 kmh S 4.0 mph6.4 kmh 29.93 in1013.5 mb 0.00 in0.0 mm 0.00 in0.0 mm 0.03 in0.8 mm
09:07 PM 73.8°F23.2°C 71.0°F21.7°C 91% 2.0 mph S3.2 kmh S 4.0 mph6.4 kmh 29.93 in1013.5 mb 0.00 in0.0 mm 0.00 in0.0 mm 0.03 in0.8 mm
09:08 PM 73.8°F23.2°C 71.0°F21.7°C 91% 1.0 mph SSW1.6 kmh SSW 4.0 mph6.4 kmh 29.93 in1013.5 mb 0.00 in0.0 mm 0.00 in0.0 mm 0.03 in0.8 mm
09:09 PM 73.8°F23.2°C 71.0°F21.7°C 91% 2.0 mph SSE3.2 kmh SSE 4.0 mph6.4 kmh 29.93 in1013.5 mb 0.00 in0.0 mm 0.00 in0.0 mm 0.03 in0.8 mm
09:10 PM 73.8°F23.2°C 71.0°F21.7°C 91% 2.0 mph S3.2 kmh S 4.0 mph6.4 kmh 29.93 in1013.5 mb 0.00 in0.0 mm 0.00 in0.0 mm 0.03 in0.8 mm
09:11 PM 73.8°F23.2°C 71.0°F21.7°C 91% 3.0 mph SW4.8 kmh SW 4.0 mph6.4 kmh 29.93 in1013.5 mb 0.00 in0.0 mm 0.00 in0.0 mm 0.03 in0.8 mm
09:12 PM 73.8°F23.2°C 71.0°F21.7°C 91% 3.0 mph SW4.8 kmh SW 4.0 mph6.4 kmh 29.93 in1013.5 mb 0.00 in0.0 mm 0.00 in0.0 mm 0.03 in0.8 mm
09:13 PM 73.8°F23.2°C 71.0°F21.7°C 91% 2.0 mph S3.2 kmh S 3.0 mph4.8 kmh 29.93 in1013.5 mb 0.00 in0.0 mm 0.00 in0.0 mm 0.03 in0.8 mm
09:14 PM 73.8°F23.2°C 71.0°F21.7°C 91% 2.0 mph S3.2 kmh S 3.0 mph4.8 kmh 29.93 in1013.5 mb 0.00 in0.0 mm 0.00 in0.0 mm 0.03 in0.8 mm
09:15 PM 73.8°F23.2°C 71.0°F21.7°C 91% 2.0 mph S3.2 kmh S 3.0 mph4.8 kmh 29.93 in1013.5 mb 0.00 in0.0 mm 0.00 in0.0 mm 0.03 in0.8 mm
09:16 PM 73.8°F23.2°C 71.0°F21.7°C 91% 3.0 mph SSW4.8 kmh SSW 4.0 mph6.4 kmh 29.93 in1013.5 mb 0.00 in0.0 mm 0.00 in0.0 mm 0.03 in0.8 mm
09:17 PM 73.8°F23.2°C 71.0°F21.7°C 91% 2.0 mph S3.2 kmh S 4.0 mph6.4 kmh 29.93 in1013.5 mb 0.00 in0.0 mm 0.00 in0.0 mm 0.03 in0.8 mm
09:18 PM 73.8°F23.2°C 71.0°F21.7°C 91% 2.0 mph SW3.2 kmh SW 4.0 mph6.4 kmh 29.93 in1013.5 mb 0.00 in0.0 mm 0.00 in0.0 mm 0.03 in0.8 mm
09:19 PM 73.5°F23.1°C 70.7°F21.5°C 91% 2.0 mph SSE3.2 kmh SSE 4.0 mph6.4 kmh 29.93 in1013.5 mb 0.00 in0.0 mm 0.00 in0.0 mm 0.03 in0.8 mm
09:20 PM 73.5°F23.1°C 70.7°F21.5°C 91% 2.0 mph SSE3.2 kmh SSE 4.0 mph6.4 kmh 29.94 in1013.9 mb 0.00 in0.0 mm 0.00 in0.0 mm 0.03 in0.8 mm
09:21 PM 73.5°F23.1°C 70.7°F21.5°C 91% 1.0 mph SSW1.6 kmh SSW 4.0 mph6.4 kmh 29.93 in1013.5 mb 0.00 in0.0 mm 0.00 in0.0 mm 0.03 in0.8 mm
09:22 PM 73.5°F23.1°C 70.7°F21.5°C 91% 1.0 mph S1.6 kmh S 4.0 mph6.4 kmh 29.94 in1013.9 mb 0.00 in0.0 mm 0.00 in0.0 mm 0.03 in0.8 mm
09:23 PM 73.5°F23.1°C 70.7°F21.5°C 91% 1.0 mph ESE1.6 kmh ESE 4.0 mph6.4 kmh 29.93 in1013.5 mb 0.00 in0.0 mm 0.00 in0.0 mm 0.03 in0.8 mm
09:24 PM 73.5°F23.1°C 70.7°F21.5°C 91% Calm Calm 4.0 mph6.4 kmh 29.93 in1013.5 mb 0.00 in0.0 mm 0.00 in0.0 mm 0.03 in0.8 mm
09:25 PM 73.4°F23.0°C 70.6°F21.4°C 91% 1.0 mph SSE1.6 kmh SSE 4.0 mph6.4 kmh 29.93 in1013.5 mb 0.00 in0.0 mm 0.00 in0.0 mm 0.03 in0.8 mm
09:26 PM 73.4°F23.0°C 70.6°F21.4°C 91% 1.0 mph S1.6 kmh S 4.0 mph6.4 kmh 29.94 in1013.9 mb 0.00 in0.0 mm 0.00 in0.0 mm 0.03 in0.8 mm
09:27 PM 73.4°F23.0°C 70.6°F21.4°C 91% Calm Calm 4.0 mph6.4 kmh 29.93 in1013.5 mb 0.00 in0.0 mm 0.00 in0.0 mm 0.03 in0.8 mm
09:28 PM 73.4°F23.0°C 70.6°F21.4°C 91% 1.0 mph S1.6 kmh S 3.0 mph4.8 kmh 29.93 in1013.5 mb 0.00 in0.0 mm 0.00 in0.0 mm 0.03 in0.8 mm
09:29 PM 73.4°F23.0°C 70.6°F21.4°C 91% Calm Calm 3.0 mph4.8 kmh 29.93 in1013.5 mb 0.00 in0.0 mm 0.00 in0.0 mm 0.03 in0.8 mm
09:30 PM 73.4°F23.0°C 71.2°F21.8°C 93% 1.0 mph S1.6 kmh S 2.0 mph3.2 kmh 29.93 in1013.5 mb 0.00 in0.0 mm 0.00 in0.0 mm 0.03 in0.8 mm
09:31 PM 73.4°F23.0°C 71.2°F21.8°C 93% 1.0 mph S1.6 kmh S 2.0 mph3.2 kmh 29.93 in1013.5 mb 0.00 in0.0 mm 0.00 in0.0 mm 0.03 in0.8 mm
09:32 PM 73.4°F23.0°C 71.2°F21.8°C 93% 1.0 mph S1.6 kmh S 2.0 mph3.2 kmh 29.93 in1013.5 mb 0.00 in0.0 mm 0.00 in0.0 mm 0.03 in0.8 mm
09:33 PM 73.4°F23.0°C 71.2°F21.8°C 93% 1.0 mph SSE1.6 kmh SSE 2.0 mph3.2 kmh 29.93 in1013.5 mb 0.00 in0.0 mm 0.00 in0.0 mm 0.03 in0.8 mm
09:34 PM 73.4°F23.0°C 71.2°F21.8°C 93% 1.0 mph SE1.6 kmh SE 2.0 mph3.2 kmh 29.94 in1013.9 mb 0.00 in0.0 mm 0.00 in0.0 mm 0.03 in0.8 mm
09:35 PM 73.1°F22.8°C 70.9°F21.6°C 93% 1.0 mph SE1.6 kmh SE 2.0 mph3.2 kmh 29.94 in1013.9 mb 0.00 in0.0 mm 0.00 in0.0 mm 0.03 in0.8 mm
09:36 PM 73.1°F22.8°C 70.9°F21.6°C 93% 1.0 mph S1.6 kmh S 2.0 mph3.2 kmh 29.94 in1013.9 mb 0.00 in0.0 mm 0.00 in0.0 mm 0.03 in0.8 mm
09:37 PM 73.1°F22.8°C 70.9°F21.6°C 93% 2.0 mph S3.2 kmh S 2.0 mph3.2 kmh 29.94 in1013.9 mb 0.00 in0.0 mm 0.00 in0.0 mm 0.03 in0.8 mm
09:38 PM 73.1°F22.8°C 70.9°F21.6°C 93% 2.0 mph S3.2 kmh S 2.0 mph3.2 kmh 29.94 in1013.9 mb 0.00 in0.0 mm 0.00 in0.0 mm 0.03 in0.8 mm
09:39 PM 73.1°F22.8°C 70.9°F21.6°C 93% 2.0 mph SSE3.2 kmh SSE 3.0 mph4.8 kmh 29.94 in1013.9 mb 0.00 in0.0 mm 0.00 in0.0 mm 0.03 in0.8 mm
09:40 PM 73.1°F22.8°C 70.9°F21.6°C 93% 2.0 mph SSW3.2 kmh SSW 3.0 mph4.8 kmh 29.94 in1013.9 mb 0.00 in0.0 mm 0.00 in0.0 mm 0.03 in0.8 mm
09:41 PM 73.1°F22.8°C 70.9°F21.6°C 93% 1.0 mph SE1.6 kmh SE 3.0 mph4.8 kmh 29.94 in1013.9 mb 0.00 in0.0 mm 0.00 in0.0 mm 0.03 in0.8 mm
09:42 PM 73.1°F22.8°C 70.9°F21.6°C 93% 2.0 mph S3.2 kmh S 3.0 mph4.8 kmh 29.94 in1013.9 mb 0.00 in0.0 mm 0.00 in0.0 mm 0.03 in0.8 mm
09:43 PM 73.1°F22.8°C 70.9°F21.6°C 93% 2.0 mph SSW3.2 kmh SSW 3.0 mph4.8 kmh 29.94 in1013.9 mb 0.00 in0.0 mm 0.00 in0.0 mm 0.03 in0.8 mm
09:44 PM 73.1°F22.8°C 71.6°F22.0°C 95% 2.0 mph SSW3.2 kmh SSW 3.0 mph4.8 kmh 29.94 in1013.9 mb 0.00 in0.0 mm 0.00 in0.0 mm 0.03 in0.8 mm
09:45 PM 73.1°F22.8°C 71.6°F22.0°C 95% 2.0 mph S3.2 kmh S 3.0 mph4.8 kmh 29.94 in1013.9 mb 0.00 in0.0 mm 0.00 in0.0 mm 0.03 in0.8 mm
09:46 PM 73.1°F22.8°C 71.6°F22.0°C 95% 1.0 mph S1.6 kmh S 3.0 mph4.8 kmh 29.94 in1013.9 mb 0.00 in0.0 mm 0.00 in0.0 mm 0.03 in0.8 mm
09:47 PM 73.1°F22.8°C 71.6°F22.0°C 95% 2.0 mph S3.2 kmh S 3.0 mph4.8 kmh 29.94 in1013.9 mb 0.00 in0.0 mm 0.00 in0.0 mm 0.03 in0.8 mm
09:48 PM 73.1°F22.8°C 71.6°F22.0°C 95% 1.0 mph SSW1.6 kmh SSW 3.0 mph4.8 kmh 29.94 in1013.9 mb 0.00 in0.0 mm 0.00 in0.0 mm 0.03 in0.8 mm
09:49 PM 73.1°F22.8°C 71.6°F22.0°C 95% 1.0 mph S1.6 kmh S 3.0 mph4.8 kmh 29.94 in1013.9 mb 0.00 in0.0 mm 0.00 in0.0 mm 0.03 in0.8 mm
09:50 PM 73.1°F22.8°C 71.6°F22.0°C 95% 1.0 mph S1.6 kmh S 3.0 mph4.8 kmh 29.94 in1013.9 mb 0.00 in0.0 mm 0.00 in0.0 mm 0.03 in0.8 mm
09:51 PM 73.1°F22.8°C 71.6°F22.0°C 95% 1.0 mph SE1.6 kmh SE 3.0 mph4.8 kmh 29.94 in1013.9 mb 0.00 in0.0 mm 0.00 in0.0 mm 0.03 in0.8 mm
09:52 PM 73.1°F22.8°C 71.6°F22.0°C 95% 2.0 mph SSW3.2 kmh SSW 3.0 mph4.8 kmh 29.95 in1014.2 mb 0.00 in0.0 mm 0.00 in0.0 mm 0.03 in0.8 mm
09:53 PM 73.1°F22.8°C 71.6°F22.0°C 95% 2.0 mph S3.2 kmh S 3.0 mph4.8 kmh 29.94 in1013.9 mb 0.00 in0.0 mm 0.00 in0.0 mm 0.03 in0.8 mm
09:54 PM 73.1°F22.8°C 71.6°F22.0°C 95% 3.0 mph S4.8 kmh S 3.0 mph4.8 kmh 29.94 in1013.9 mb 0.00 in0.0 mm 0.00 in0.0 mm 0.03 in0.8 mm
09:55 PM 73.1°F22.8°C 71.6°F22.0°C 95% 4.0 mph SSE6.4 kmh SSE 4.0 mph6.4 kmh 29.94 in1013.9 mb 0.00 in0.0 mm 0.00 in0.0 mm 0.03 in0.8 mm
09:56 PM 73.1°F22.8°C 71.6°F22.0°C 95% 2.0 mph S3.2 kmh S 4.0 mph6.4 kmh 29.94 in1013.9 mb 0.00 in0.0 mm 0.00 in0.0 mm 0.03 in0.8 mm
09:57 PM 73.1°F22.8°C 71.6°F22.0°C 95% 2.0 mph S3.2 kmh S 4.0 mph6.4 kmh 29.94 in1013.9 mb 0.00 in0.0 mm 0.00 in0.0 mm 0.03 in0.8 mm
09:58 PM 73.1°F22.8°C 71.6°F22.0°C 95% 1.0 mph S1.6 kmh S 4.0 mph6.4 kmh 29.95 in1014.2 mb 0.00 in0.0 mm 0.00 in0.0 mm 0.03 in0.8 mm
09:59 PM 73.1°F22.8°C 71.6°F22.0°C 95% 2.0 mph S3.2 kmh S 4.0 mph6.4 kmh 29.94 in1013.9 mb 0.00 in0.0 mm 0.00 in0.0 mm 0.03 in0.8 mm
10:00 PM 73.1°F22.8°C 71.6°F22.0°C 95% 1.0 mph S1.6 kmh S 4.0 mph6.4 kmh 29.95 in1014.2 mb 0.00 in0.0 mm 0.00 in0.0 mm 0.03 in0.8 mm
10:01 PM 73.1°F22.8°C 71.6°F22.0°C 95% 2.0 mph S3.2 kmh S 4.0 mph6.4 kmh 29.94 in1013.9 mb 0.00 in0.0 mm 0.00 in0.0 mm 0.03 in0.8 mm
10:02 PM 73.1°F22.8°C 71.6°F22.0°C 95% 2.0 mph S3.2 kmh S 4.0 mph6.4 kmh 29.94 in1013.9 mb 0.00 in0.0 mm 0.00 in0.0 mm 0.03 in0.8 mm
10:03 PM 73.1°F22.8°C 71.6°F22.0°C 95% 2.0 mph S3.2 kmh S 4.0 mph6.4 kmh 29.94 in1013.9 mb 0.00 in0.0 mm 0.00 in0.0 mm 0.03 in0.8 mm
10:04 PM 73.1°F22.8°C 71.6°F22.0°C 95% 3.0 mph SSW4.8 kmh SSW 4.0 mph6.4 kmh 29.94 in1013.9 mb 0.00 in0.0 mm 0.00 in0.0 mm 0.03 in0.8 mm
10:05 PM 73.1°F22.8°C 71.6°F22.0°C 95% 2.0 mph SSW3.2 kmh SSW 4.0 mph6.4 kmh 29.94 in1013.9 mb 0.00 in0.0 mm 0.00 in0.0 mm 0.03 in0.8 mm
10:06 PM 73.1°F22.8°C 71.6°F22.0°C 95% 4.0 mph S6.4 kmh S 4.0 mph6.4 kmh 29.94 in1013.9 mb 0.00 in0.0 mm 0.00 in0.0 mm 0.03 in0.8 mm
10:07 PM 73.1°F22.8°C 71.6°F22.0°C 95% 2.0 mph SE3.2 kmh SE 4.0 mph6.4 kmh 29.94 in1013.9 mb 0.00 in0.0 mm 0.00 in0.0 mm 0.03 in0.8 mm
10:08 PM 73.1°F22.8°C 71.6°F22.0°C 95% 2.0 mph SE3.2 kmh SE 4.0 mph6.4 kmh 29.94 in1013.9 mb 0.00 in0.0 mm 0.00 in0.0 mm 0.03 in0.8 mm
10:09 PM 73.0°F22.8°C 71.5°F21.9°C 95% 2.0 mph S3.2 kmh S 4.0 mph6.4 kmh 29.94 in1013.9 mb 0.00 in0.0 mm 0.00 in0.0 mm 0.03 in0.8 mm
10:10 PM 73.0°F22.8°C 71.5°F21.9°C 95% 3.0 mph SSE4.8 kmh SSE 4.0 mph6.4 kmh 29.94 in1013.9 mb 0.00 in0.0 mm 0.00 in0.0 mm 0.03 in0.8 mm
10:11 PM 73.0°F22.8°C 71.5°F21.9°C 95% 2.0 mph S3.2 kmh S 4.0 mph6.4 kmh 29.94 in1013.9 mb 0.00 in0.0 mm 0.00 in0.0 mm 0.03 in0.8 mm
10:12 PM 73.0°F22.8°C 71.5°F21.9°C 95% 2.0 mph SSW3.2 kmh SSW 4.0 mph6.4 kmh 29.94 in1013.9 mb 0.00 in0.0 mm 0.00 in0.0 mm 0.03 in0.8 mm
10:13 PM 73.0°F22.8°C 71.5°F21.9°C 95% 2.0 mph S3.2 kmh S 4.0 mph6.4 kmh 29.94 in1013.9 mb 0.00 in0.0 mm 0.00 in0.0 mm 0.03 in0.8 mm
10:14 PM 73.0°F22.8°C 71.8°F22.1°C 96% 3.0 mph SSW4.8 kmh SSW 4.0 mph6.4 kmh 29.94 in1013.9 mb 0.00 in0.0 mm 0.00 in0.0 mm 0.03 in0.8 mm
10:15 PM 73.0°F22.8°C 71.8°F22.1°C 96% 3.0 mph SW4.8 kmh SW 4.0 mph6.4 kmh 29.94 in1013.9 mb 0.00 in0.0 mm 0.00 in0.0 mm 0.03 in0.8 mm
10:16 PM 72.8°F22.7°C 71.6°F22.0°C 96% 2.0 mph S3.2 kmh S 4.0 mph6.4 kmh 29.94 in1013.9 mb 0.00 in0.0 mm 0.00 in0.0 mm 0.03 in0.8 mm
10:17 PM 72.8°F22.7°C 71.6°F22.0°C 96% 3.0 mph SSW4.8 kmh SSW 4.0 mph6.4 kmh 29.94 in1013.9 mb 0.00 in0.0 mm 0.00 in0.0 mm 0.03 in0.8 mm
10:18 PM 72.8°F22.7°C 71.6°F22.0°C 96% 3.0 mph S4.8 kmh S 4.0 mph6.4 kmh 29.94 in1013.9 mb 0.00 in0.0 mm 0.00 in0.0 mm 0.03 in0.8 mm
10:19 PM 72.8°F22.7°C 71.6°F22.0°C 96% 3.0 mph SSW4.8 kmh SSW 4.0 mph6.4 kmh 29.94 in1013.9 mb 0.00 in0.0 mm 0.00 in0.0 mm 0.03 in0.8 mm
10:20 PM 72.8°F22.7°C 71.6°F22.0°C 96% 2.0 mph SSE3.2 kmh SSE 4.0 mph6.4 kmh 29.94 in1013.9 mb 0.00 in0.0 mm 0.00 in0.0 mm 0.03 in0.8 mm
10:21 PM 72.8°F22.7°C 71.6°F22.0°C 96% 3.0 mph S4.8 kmh S 4.0 mph6.4 kmh 29.94 in1013.9 mb 0.00 in0.0 mm 0.00 in0.0 mm 0.03 in0.8 mm
10:22 PM 72.8°F22.7°C 71.6°F22.0°C 96% 4.0 mph S6.4 kmh S 4.0 mph6.4 kmh 29.95 in1014.2 mb 0.00 in0.0 mm 0.00 in0.0 mm 0.03 in0.8 mm
10:23 PM 72.8°F22.7°C 71.6°F22.0°C 96% 2.0 mph S3.2 kmh S 4.0 mph6.4 kmh 29.94 in1013.9 mb 0.00 in0.0 mm 0.00 in0.0 mm 0.03 in0.8 mm
10:24 PM 72.8°F22.7°C 71.6°F22.0°C 96% 4.0 mph SSW6.4 kmh SSW 4.0 mph6.4 kmh 29.95 in1014.2 mb 0.00 in0.0 mm 0.00 in0.0 mm 0.03 in0.8 mm
10:25 PM 72.8°F22.7°C 71.6°F22.0°C 96% 3.0 mph SSW4.8 kmh SSW 4.0 mph6.4 kmh 29.95 in1014.2 mb 0.00 in0.0 mm 0.00 in0.0 mm 0.03 in0.8 mm
10:26 PM 72.8°F22.7°C 71.6°F22.0°C 96% 3.0 mph S4.8 kmh S 4.0 mph6.4 kmh 29.95 in1014.2 mb 0.00 in0.0 mm 0.00 in0.0 mm 0.03 in0.8 mm
10:27 PM 72.8°F22.7°C 71.6°F22.0°C 96% 2.0 mph ESE3.2 kmh ESE 4.0 mph6.4 kmh 29.94 in1013.9 mb 0.00 in0.0 mm 0.00 in0.0 mm 0.03 in0.8 mm
10:28 PM 72.8°F22.7°C 71.6°F22.0°C 96% 3.0 mph S4.8 kmh S 4.0 mph6.4 kmh 29.94 in1013.9 mb 0.00 in0.0 mm 0.00 in0.0 mm 0.03 in0.8 mm
10:29 PM 72.8°F22.7°C 71.6°F22.0°C 96% 2.0 mph SSE3.2 kmh SSE 4.0 mph6.4 kmh 29.94 in1013.9 mb 0.00 in0.0 mm 0.00 in0.0 mm 0.03 in0.8 mm
10:30 PM 72.6°F22.6°C 71.4°F21.9°C 96% 2.0 mph SSE3.2 kmh SSE 4.0 mph6.4 kmh 29.95 in1014.2 mb 0.00 in0.0 mm 0.00 in0.0 mm 0.03 in0.8 mm
10:31 PM 72.6°F22.6°C 71.4°F21.9°C 96% 2.0 mph SSW3.2 kmh SSW 4.0 mph6.4 kmh 29.94 in1013.9 mb 0.00 in0.0 mm 0.00 in0.0 mm 0.03 in0.8 mm
10:32 PM 72.6°F22.6°C 71.4°F21.9°C 96% 2.0 mph SSE3.2 kmh SSE 4.0 mph6.4 kmh 29.94 in1013.9 mb 0.00 in0.0 mm 0.00 in0.0 mm 0.03 in0.8 mm
10:33 PM 72.6°F22.6°C 71.4°F21.9°C 96% 2.0 mph SSW3.2 kmh SSW 4.0 mph6.4 kmh 29.94 in1013.9 mb 0.00 in0.0 mm 0.00 in0.0 mm 0.03 in0.8 mm
10:34 PM 72.6°F22.6°C 71.4°F21.9°C 96% 2.0 mph SSE3.2 kmh SSE 4.0 mph6.4 kmh 29.95 in1014.2 mb 0.00 in0.0 mm 0.00 in0.0 mm 0.03 in0.8 mm
10:35 PM 72.6°F22.6°C 71.4°F21.9°C 96% 3.0 mph S4.8 kmh S 4.0 mph6.4 kmh 29.95 in1014.2 mb 0.00 in0.0 mm 0.00 in0.0 mm 0.03 in0.8 mm
10:36 PM 72.6°F22.6°C 71.4°F21.9°C 96% 2.0 mph S3.2 kmh S 4.0 mph6.4 kmh 29.95 in1014.2 mb 0.00 in0.0 mm 0.00 in0.0 mm 0.03 in0.8 mm
10:37 PM 72.5°F22.5°C 71.3°F21.8°C 96% 3.0 mph SSW4.8 kmh SSW 4.0 mph6.4 kmh 29.95 in1014.2 mb 0.00 in0.0 mm 0.00 in0.0 mm 0.03 in0.8 mm
10:38 PM 72.5°F22.5°C 71.3°F21.8°C 96% 4.0 mph S6.4 kmh S 4.0 mph6.4 kmh 29.95 in1014.2 mb 0.00 in0.0 mm 0.00 in0.0 mm 0.03 in0.8 mm
10:39 PM 72.5°F22.5°C 71.3°F21.8°C 96% 2.0 mph S3.2 kmh S 4.0 mph6.4 kmh 29.95 in1014.2 mb 0.00 in0.0 mm 0.00 in0.0 mm 0.03 in0.8 mm
10:40 PM 72.5°F22.5°C 71.3°F21.8°C 96% 2.0 mph WSW3.2 kmh WSW 4.0 mph6.4 kmh 29.95 in1014.2 mb 0.00 in0.0 mm 0.00 in0.0 mm 0.03 in0.8 mm
10:41 PM 72.5°F22.5°C 71.3°F21.8°C 96% 2.0 mph S3.2 kmh S 4.0 mph6.4 kmh 29.95 in1014.2 mb 0.00 in0.0 mm 0.00 in0.0 mm 0.03 in0.8 mm
10:42 PM 72.3°F22.4°C 71.1°F21.7°C 96% 2.0 mph S3.2 kmh S 4.0 mph6.4 kmh 29.95 in1014.2 mb 0.00 in0.0 mm 0.00 in0.0 mm 0.03 in0.8 mm
10:43 PM 72.3°F22.4°C 71.1°F21.7°C 96% 3.0 mph SSW4.8 kmh SSW 4.0 mph6.4 kmh 29.95 in1014.2 mb 0.00 in0.0 mm 0.00 in0.0 mm 0.03 in0.8 mm
10:44 PM 72.3°F22.4°C 71.1°F21.7°C 96% 3.0 mph SSE4.8 kmh SSE 4.0 mph6.4 kmh 29.95 in1014.2 mb 0.00 in0.0 mm 0.00 in0.0 mm 0.03 in0.8 mm
10:45 PM 72.3°F22.4°C 71.1°F21.7°C 96% 4.0 mph SSW6.4 kmh SSW 4.0 mph6.4 kmh 29.95 in1014.2 mb 0.00 in0.0 mm 0.00 in0.0 mm 0.03 in0.8 mm
10:46 PM 72.3°F22.4°C 71.1°F21.7°C 96% 2.0 mph S3.2 kmh S 4.0 mph6.4 kmh 29.95 in1014.2 mb 0.00 in0.0 mm 0.00 in0.0 mm 0.03 in0.8 mm
10:47 PM 72.3°F22.4°C 71.1°F21.7°C 96% 3.0 mph SSE4.8 kmh SSE 4.0 mph6.4 kmh 29.95 in1014.2 mb 0.00 in0.0 mm 0.00 in0.0 mm 0.03 in0.8 mm
10:48 PM 72.3°F22.4°C 71.1°F21.7°C 96% 2.0 mph S3.2 kmh S 4.0 mph6.4 kmh 29.95 in1014.2 mb 0.00 in0.0 mm 0.00 in0.0 mm 0.03 in0.8 mm
10:49 PM 72.3°F22.4°C 71.1°F21.7°C 96% 3.0 mph SSW4.8 kmh SSW 4.0 mph6.4 kmh 29.95 in1014.2 mb 0.00 in0.0 mm 0.00 in0.0 mm 0.03 in0.8 mm
10:50 PM 72.3°F22.4°C 71.1°F21.7°C 96% 2.0 mph S3.2 kmh S 4.0 mph6.4 kmh 29.95 in1014.2 mb 0.00 in0.0 mm 0.00 in0.0 mm 0.03 in0.8 mm
10:51 PM 72.3°F22.4°C 71.1°F21.7°C 96% 2.0 mph S3.2 kmh S 4.0 mph6.4 kmh 29.95 in1014.2 mb 0.00 in0.0 mm 0.00 in0.0 mm 0.03 in0.8 mm
10:52 PM 72.3°F22.4°C 71.1°F21.7°C 96% 3.0 mph S4.8 kmh S 4.0 mph6.4 kmh 29.95 in1014.2 mb 0.00 in0.0 mm 0.00 in0.0 mm 0.03 in0.8 mm
10:53 PM 72.3°F22.4°C 71.1°F21.7°C 96% 4.0 mph SSW6.4 kmh SSW 4.0 mph6.4 kmh 29.95 in1014.2 mb 0.00 in0.0 mm 0.00 in0.0 mm 0.03 in0.8 mm
10:54 PM 72.3°F22.4°C 71.1°F21.7°C 96% 4.0 mph S6.4 kmh S 4.0 mph6.4 kmh 29.95 in1014.2 mb 0.00 in0.0 mm 0.00 in0.0 mm 0.03 in0.8 mm
10:55 PM 72.3°F22.4°C 71.1°F21.7°C 96% 3.0 mph SSW4.8 kmh SSW 4.0 mph6.4 kmh 29.95 in1014.2 mb 0.00 in0.0 mm 0.00 in0.0 mm 0.03 in0.8 mm
10:56 PM 72.3°F22.4°C 71.1°F21.7°C 96% 3.0 mph S4.8 kmh S 4.0 mph6.4 kmh 29.95 in1014.2 mb 0.00 in0.0 mm 0.00 in0.0 mm 0.03 in0.8 mm
10:57 PM 72.3°F22.4°C 71.1°F21.7°C 96% 3.0 mph S4.8 kmh S 4.0 mph6.4 kmh 29.95 in1014.2 mb 0.00 in0.0 mm 0.00 in0.0 mm 0.03 in0.8 mm
10:58 PM 72.3°F22.4°C 71.1°F21.7°C 96% 2.0 mph S3.2 kmh S 4.0 mph6.4 kmh 29.95 in1014.2 mb 0.00 in0.0 mm 0.00 in0.0 mm 0.03 in0.8 mm
10:59 PM 72.3°F22.4°C 71.1°F21.7°C 96% 2.0 mph S3.2 kmh S 4.0 mph6.4 kmh 29.95 in1014.2 mb 0.00 in0.0 mm 0.00 in0.0 mm 0.03 in0.8 mm
11:00 PM 72.3°F22.4°C 71.1°F21.7°C 96% 3.0 mph S4.8 kmh S 4.0 mph6.4 kmh 29.95 in1014.2 mb 0.00 in0.0 mm 0.00 in0.0 mm 0.03 in0.8 mm
11:01 PM 72.1°F22.3°C 70.9°F21.6°C 96% 4.0 mph SSW6.4 kmh SSW 4.0 mph6.4 kmh 29.95 in1014.2 mb 0.00 in0.0 mm 0.00 in0.0 mm 0.03 in0.8 mm
11:02 PM 72.1°F22.3°C 70.9°F21.6°C 96% 4.0 mph SE6.4 kmh SE 4.0 mph6.4 kmh 29.95 in1014.2 mb 0.00 in0.0 mm 0.00 in0.0 mm 0.03 in0.8 mm
11:03 PM 72.1°F22.3°C 70.9°F21.6°C 96% 5.0 mph SSW8.0 kmh SSW 5.0 mph8.0 kmh 29.95 in1014.2 mb 0.00 in0.0 mm 0.00 in0.0 mm 0.03 in0.8 mm
11:04 PM 72.1°F22.3°C 70.9°F21.6°C 96% 4.0 mph S6.4 kmh S 5.0 mph8.0 kmh 29.96 in1014.6 mb 0.00 in0.0 mm 0.00 in0.0 mm 0.03 in0.8 mm
11:05 PM 72.1°F22.3°C 70.9°F21.6°C 96% 4.0 mph S6.4 kmh S 5.0 mph8.0 kmh 29.96 in1014.6 mb 0.00 in0.0 mm 0.00 in0.0 mm 0.03 in0.8 mm
11:06 PM 72.1°F22.3°C 70.9°F21.6°C 96% 2.0 mph SSE3.2 kmh SSE 5.0 mph8.0 kmh 29.96 in1014.6 mb 0.00 in0.0 mm 0.00 in0.0 mm 0.03 in0.8 mm
11:07 PM 72.1°F22.3°C 70.9°F21.6°C 96% 3.0 mph S4.8 kmh S 5.0 mph8.0 kmh 29.95 in1014.2 mb 0.00 in0.0 mm 0.00 in0.0 mm 0.03 in0.8 mm
11:08 PM 72.1°F22.3°C 71.5°F21.9°C 98% 3.0 mph S4.8 kmh S 5.0 mph8.0 kmh 29.96 in1014.6 mb 0.00 in0.0 mm 0.00 in0.0 mm 0.03 in0.8 mm
11:09 PM 72.1°F22.3°C 71.5°F21.9°C 98% 5.0 mph SSE8.0 kmh SSE 5.0 mph8.0 kmh 29.96 in1014.6 mb 0.00 in0.0 mm 0.00 in0.0 mm 0.03 in0.8 mm
11:10 PM 72.1°F22.3°C 71.5°F21.9°C 98% 3.0 mph S4.8 kmh S 5.0 mph8.0 kmh 29.96 in1014.6 mb 0.00 in0.0 mm 0.00 in0.0 mm 0.03 in0.8 mm
11:11 PM 72.1°F22.3°C 71.5°F21.9°C 98% 3.0 mph S4.8 kmh S 5.0 mph8.0 kmh 29.96 in1014.6 mb 0.00 in0.0 mm 0.00 in0.0 mm 0.03 in0.8 mm
11:12 PM 72.1°F22.3°C 71.5°F21.9°C 98% 2.0 mph SSW3.2 kmh SSW 5.0 mph8.0 kmh 29.96 in1014.6 mb 0.00 in0.0 mm 0.00 in0.0 mm 0.03 in0.8 mm
11:13 PM 72.1°F22.3°C 71.5°F21.9°C 98% 1.0 mph SE1.6 kmh SE 5.0 mph8.0 kmh 29.95 in1014.2 mb 0.00 in0.0 mm 0.00 in0.0 mm 0.03 in0.8 mm
11:14 PM 72.1°F22.3°C 71.5°F21.9°C 98% 2.0 mph S3.2 kmh S 5.0 mph8.0 kmh 29.95 in1014.2 mb 0.00 in0.0 mm 0.00 in0.0 mm 0.03 in0.8 mm
11:15 PM 72.1°F22.3°C 71.5°F21.9°C 98% Calm Calm 5.0 mph8.0 kmh 29.95 in1014.2 mb 0.00 in0.0 mm 0.00 in0.0 mm 0.03 in0.8 mm
11:16 PM 72.1°F22.3°C 71.5°F21.9°C 98% 2.0 mph S3.2 kmh S 5.0 mph8.0 kmh 29.95 in1014.2 mb 0.00 in0.0 mm 0.00 in0.0 mm 0.03 in0.8 mm
11:17 PM 72.1°F22.3°C 71.5°F21.9°C 98% 2.0 mph S3.2 kmh S 5.0 mph8.0 kmh 29.95 in1014.2 mb 0.00 in0.0 mm 0.00 in0.0 mm 0.03 in0.8 mm
11:18 PM 72.1°F22.3°C 71.5°F21.9°C 98% 2.0 mph S3.2 kmh S 5.0 mph8.0 kmh 29.95 in1014.2 mb 0.00 in0.0 mm 0.00 in0.0 mm 0.03 in0.8 mm
11:19 PM 72.1°F22.3°C 71.5°F21.9°C 98% 2.0 mph S3.2 kmh S 3.0 mph4.8 kmh 29.95 in1014.2 mb 0.00 in0.0 mm 0.00 in0.0 mm 0.03 in0.8 mm
11:20 PM 72.1°F22.3°C 71.5°F21.9°C 98% 2.0 mph S3.2 kmh S 3.0 mph4.8 kmh 29.96 in1014.6 mb 0.00 in0.0 mm 0.00 in0.0 mm 0.03 in0.8 mm
11:21 PM 72.1°F22.3°C 71.5°F21.9°C 98% 2.0 mph SSW3.2 kmh SSW 3.0 mph4.8 kmh 29.96 in1014.6 mb 0.00 in0.0 mm 0.00 in0.0 mm 0.03 in0.8 mm
11:22 PM 72.1°F22.3°C 71.5°F21.9°C 98% 2.0 mph SSW3.2 kmh SSW 3.0 mph4.8 kmh 29.96 in1014.6 mb 0.00 in0.0 mm 0.00 in0.0 mm 0.03 in0.8 mm
11:23 PM 72.1°F22.3°C 71.5°F21.9°C 98% 3.0 mph S4.8 kmh S 3.0 mph4.8 kmh 29.96 in1014.6 mb 0.00 in0.0 mm 0.00 in0.0 mm 0.03 in0.8 mm
11:24 PM 72.1°F22.3°C 71.5°F21.9°C 98% 3.0 mph S4.8 kmh S 3.0 mph4.8 kmh 29.96 in1014.6 mb 0.00 in0.0 mm 0.00 in0.0 mm 0.03 in0.8 mm
11:25 PM 72.1°F22.3°C 71.5°F21.9°C 98% 3.0 mph S4.8 kmh S 3.0 mph4.8 kmh 29.96 in1014.6 mb 0.00 in0.0 mm 0.00 in0.0 mm 0.03 in0.8 mm
11:26 PM 72.1°F22.3°C 71.5°F21.9°C 98% 3.0 mph SSE4.8 kmh SSE 4.0 mph6.4 kmh 29.96 in1014.6 mb 0.00 in0.0 mm 0.00 in0.0 mm 0.03 in0.8 mm
11:27 PM 72.1°F22.3°C 71.5°F21.9°C 98% 3.0 mph S4.8 kmh S 4.0 mph6.4 kmh 29.96 in1014.6 mb 0.00 in0.0 mm 0.00 in0.0 mm 0.03 in0.8 mm
11:28 PM 71.9°F22.2°C 71.3°F21.8°C 98% 3.0 mph S4.8 kmh S 4.0 mph6.4 kmh 29.96 in1014.6 mb 0.00 in0.0 mm 0.00 in0.0 mm 0.03 in0.8 mm
11:29 PM 71.9°F22.2°C 71.3°F21.8°C 98% 2.0 mph ESE3.2 kmh ESE 4.0 mph6.4 kmh 29.96 in1014.6 mb 0.00 in0.0 mm 0.00 in0.0 mm 0.03 in0.8 mm
11:30 PM 71.9°F22.2°C 71.3°F21.8°C 98% 2.0 mph S3.2 kmh S 4.0 mph6.4 kmh 29.96 in1014.6 mb 0.00 in0.0 mm 0.00 in0.0 mm 0.03 in0.8 mm
11:31 PM 71.9°F22.2°C 71.3°F21.8°C 98% 2.0 mph SSW3.2 kmh SSW 4.0 mph6.4 kmh 29.96 in1014.6 mb 0.00 in0.0 mm 0.00 in0.0 mm 0.03 in0.8 mm
11:32 PM 71.9°F22.2°C 71.3°F21.8°C 98% 1.0 mph S1.6 kmh S 4.0 mph6.4 kmh 29.96 in1014.6 mb 0.00 in0.0 mm 0.00 in0.0 mm 0.03 in0.8 mm
11:33 PM 71.9°F22.2°C 71.3°F21.8°C 98% 3.0 mph SE4.8 kmh SE 4.0 mph6.4 kmh 29.96 in1014.6 mb 0.00 in0.0 mm 0.00 in0.0 mm 0.03 in0.8 mm
11:34 PM 71.9°F22.2°C 71.3°F21.8°C 98% 2.0 mph SSE3.2 kmh SSE 4.0 mph6.4 kmh 29.96 in1014.6 mb 0.00 in0.0 mm 0.00 in0.0 mm 0.03 in0.8 mm
11:35 PM 71.9°F22.2°C 71.3°F21.8°C 98% 5.0 mph S8.0 kmh S 5.0 mph8.0 kmh 29.96 in1014.6 mb 0.00 in0.0 mm 0.00 in0.0 mm 0.03 in0.8 mm
11:36 PM 71.9°F22.2°C 71.3°F21.8°C 98% 3.0 mph SSW4.8 kmh SSW 5.0 mph8.0 kmh 29.96 in1014.6 mb 0.00 in0.0 mm 0.00 in0.0 mm 0.03 in0.8 mm
11:37 PM 71.9°F22.2°C 71.3°F21.8°C 98% 1.0 mph ESE1.6 kmh ESE 5.0 mph8.0 kmh 29.96 in1014.6 mb 0.00 in0.0 mm 0.00 in0.0 mm 0.03 in0.8 mm
11:38 PM 71.9°F22.2°C 71.3°F21.8°C 98% 2.0 mph S3.2 kmh S 5.0 mph8.0 kmh 29.96 in1014.6 mb 0.00 in0.0 mm 0.00 in0.0 mm 0.03 in0.8 mm
11:39 PM 71.9°F22.2°C 71.3°F21.8°C 98% 1.0 mph SE1.6 kmh SE 5.0 mph8.0 kmh 29.96 in1014.6 mb 0.00 in0.0 mm 0.00 in0.0 mm 0.03 in0.8 mm
11:40 PM 71.9°F22.2°C 71.3°F21.8°C 98% 2.0 mph S3.2 kmh S 5.0 mph8.0 kmh 29.96 in1014.6 mb 0.00 in0.0 mm 0.00 in0.0 mm 0.03 in0.8 mm
11:41 PM 71.9°F22.2°C 71.3°F21.8°C 98% 2.0 mph S3.2 kmh S 5.0 mph8.0 kmh 29.96 in1014.6 mb 0.00 in0.0 mm 0.00 in0.0 mm 0.03 in0.8 mm
11:42 PM 71.9°F22.2°C 71.3°F21.8°C 98% 2.0 mph S3.2 kmh S 5.0 mph8.0 kmh 29.96 in1014.6 mb 0.00 in0.0 mm 0.00 in0.0 mm 0.03 in0.8 mm
11:43 PM 71.9°F22.2°C 71.3°F21.8°C 98% 3.0 mph S4.8 kmh S 5.0 mph8.0 kmh 29.96 in1014.6 mb 0.00 in0.0 mm 0.00 in0.0 mm 0.03 in0.8 mm
11:44 PM 71.9°F22.2°C 71.3°F21.8°C 98% 3.0 mph S4.8 kmh S 5.0 mph8.0 kmh 29.96 in1014.6 mb 0.00 in0.0 mm 0.00 in0.0 mm 0.03 in0.8 mm
11:45 PM 71.9°F22.2°C 71.3°F21.8°C 98% 2.0 mph SSE3.2 kmh SSE 5.0 mph8.0 kmh 29.96 in1014.6 mb 0.00 in0.0 mm 0.00 in0.0 mm 0.03 in0.8 mm
11:46 PM 71.9°F22.2°C 71.3°F21.8°C 98% 2.0 mph S3.2 kmh S 3.0 mph4.8 kmh 29.96 in1014.6 mb 0.00 in0.0 mm 0.00 in0.0 mm 0.03 in0.8 mm
11:47 PM 71.9°F22.2°C 71.3°F21.8°C 98% 2.0 mph SSW3.2 kmh SSW 3.0 mph4.8 kmh 29.96 in1014.6 mb 0.00 in0.0 mm 0.00 in0.0 mm 0.03 in0.8 mm
11:48 PM 71.9°F22.2°C 71.3°F21.8°C 98% 2.0 mph SSW3.2 kmh SSW 3.0 mph4.8 kmh 29.97 in1014.9 mb 0.00 in0.0 mm 0.00 in0.0 mm 0.03 in0.8 mm
11:49 PM 71.9°F22.2°C 71.3°F21.8°C 98% 2.0 mph S3.2 kmh S 3.0 mph4.8 kmh 29.96 in1014.6 mb 0.00 in0.0 mm 0.00 in0.0 mm 0.03 in0.8 mm
11:50 PM 71.9°F22.2°C 71.3°F21.8°C 98% 2.0 mph SSE3.2 kmh SSE 3.0 mph4.8 kmh 29.96 in1014.6 mb 0.00 in0.0 mm 0.00 in0.0 mm 0.03 in0.8 mm
11:51 PM 71.9°F22.2°C 71.3°F21.8°C 98% 3.0 mph S4.8 kmh S 3.0 mph4.8 kmh 29.96 in1014.6 mb 0.00 in0.0 mm 0.00 in0.0 mm 0.03 in0.8 mm
11:52 PM 71.9°F22.2°C 71.3°F21.8°C 98% 2.0 mph SE3.2 kmh SE 3.0 mph4.8 kmh 29.96 in1014.6 mb 0.00 in0.0 mm 0.00 in0.0 mm 0.03 in0.8 mm
11:53 PM 71.9°F22.2°C 71.3°F21.8°C 98% 2.0 mph SSE3.2 kmh SSE 3.0 mph4.8 kmh 29.96 in1014.6 mb 0.00 in0.0 mm 0.00 in0.0 mm 0.03 in0.8 mm
11:54 PM 71.9°F22.2°C 71.3°F21.8°C 98% 1.0 mph S1.6 kmh S 3.0 mph4.8 kmh 29.96 in1014.6 mb 0.00 in0.0 mm 0.00 in0.0 mm 0.03 in0.8 mm
11:55 PM 71.9°F22.2°C 71.3°F21.8°C 98% 2.0 mph SE3.2 kmh SE 3.0 mph4.8 kmh 29.96 in1014.6 mb 0.00 in0.0 mm 0.00 in0.0 mm 0.03 in0.8 mm
11:56 PM 71.9°F22.2°C 71.3°F21.8°C 98% 1.0 mph SSE1.6 kmh SSE 3.0 mph4.8 kmh 29.96 in1014.6 mb 0.00 in0.0 mm 0.00 in0.0 mm 0.03 in0.8 mm
11:57 PM 71.9°F22.2°C 71.3°F21.8°C 98% 2.0 mph SSW3.2 kmh SSW 3.0 mph4.8 kmh 29.96 in1014.6 mb 0.00 in0.0 mm 0.00 in0.0 mm 0.03 in0.8 mm
11:58 PM 71.9°F22.2°C 71.3°F21.8°C 98% 2.0 mph SE3.2 kmh SE 3.0 mph4.8 kmh 29.96 in1014.6 mb 0.00 in0.0 mm 0.00 in0.0 mm 0.03 in0.8 mm
11:59 PM 71.9°F22.2°C 71.3°F21.8°C 98% 1.0 mph S1.6 kmh S 3.0 mph4.8 kmh 29.96 in1014.6 mb 0.00 in0.0 mm 0.00 in0.0 mm 0.03 in0.8 mm